Time;durP1;ratioP1;P1;durP2;ratioP2;P2;SDS_P1;SDS_P2;PMS_P1;PMS_P2;Temp;Humidity;BMP_temperature;BMP_pressure;BME280_temperature;BME280_humidity;BME280_pressure;Samples;Min_cycle;Max_cycle;Signal;HPM_P1;HPM_P2
2022/05/21 00:00:42;;;;;;;15.43;9.68;;;10.80;99.90;;;;;;5073890;28;19960;-64
2022/05/21 00:03:10;;;;;;;20.52;9.60;;;10.90;99.90;;;;;;5074614;28;20059;-65
2022/05/21 00:05:37;;;;;;;19.25;9.30;;;10.80;99.90;;;;;;5058071;28;20469;-65
2022/05/21 00:08:04;;;;;;;21.80;10.98;;;10.90;99.90;;;;;;5078565;28;20044;-64
2022/05/21 00:10:31;;;;;;;20.63;11.85;;;11.00;99.90;;;;;;5078685;28;20048;-64
2022/05/21 00:12:58;;;;;;;23.80;11.15;;;11.00;99.90;;;;;;5079110;28;20036;-64
2022/05/21 00:15:31;;;;;;;20.35;12.18;;;11.10;99.90;;;;;;5077794;28;20051;-65
2022/05/21 00:17:56;;;;;;;21.63;13.02;;;11.10;99.90;;;;;;5077557;28;20059;-64
2022/05/21 00:23:14;;;;;;;;;;;11.20;99.90;;;;;;5079034;28;20374;-64
2022/05/21 00:25:41;;;;;;;31.80;15.93;;;11.40;99.90;;;;;;5078280;28;19973;-64
2022/05/21 00:28:06;;;;;;;34.50;17.67;;;11.40;99.90;;;;;;5077521;28;20048;-64
2022/05/21 00:30:32;;;;;;;27.90;16.75;;;11.40;99.90;;;;;;5078221;28;20055;-64
2022/05/21 00:32:59;;;;;;;30.55;18.65;;;11.60;99.90;;;;;;5060727;28;20470;-64
2022/05/21 00:35:24;;;;;;;28.58;16.52;;;11.70;99.90;;;;;;5078230;28;20044;-65
2022/05/21 00:37:50;;;;;;;24.35;16.50;;;11.80;99.90;;;;;;5078142;28;20340;-64
2022/05/21 00:40:16;;;;;;;26.42;15.63;;;12.00;99.90;;;;;;5060947;28;20063;-65
2022/05/21 00:42:43;;;;;;;28.27;15.65;;;12.10;99.90;;;;;;5076964;28;20044;-65
2022/05/21 00:45:09;;;;;;;28.90;15.15;;;12.20;99.90;;;;;;5076789;28;20474;-64
2022/05/21 00:47:36;;;;;;;27.88;15.75;;;12.30;99.90;;;;;;5060558;28;20127;-64
2022/05/21 00:50:02;;;;;;;27.75;14.55;;;12.40;99.90;;;;;;5078021;28;20036;-65
2022/05/21 00:52:28;;;;;;;22.90;13.63;;;12.40;99.90;;;;;;5077802;28;20064;-65
2022/05/21 00:54:58;;;;;;;29.70;14.32;;;12.60;99.90;;;;;;5077757;28;20056;-64
2022/05/21 00:57:28;;;;;;;26.15;13.30;;;12.60;99.90;;;;;;5076752;28;20185;-65
2022/05/21 00:59:58;;;;;;;25.25;12.43;;;12.60;99.90;;;;;;5060539;28;20052;-65
2022/05/21 01:02:32;;;;;;;31.65;12.75;;;12.60;99.90;;;;;;5077698;28;20044;-65
2022/05/21 01:05:00;;;;;;;25.42;13.27;;;12.80;99.90;;;;;;5077740;28;20072;-64
2022/05/21 01:07:26;;;;;;;27.35;13.05;;;12.80;99.90;;;;;;5076991;28;20048;-64
2022/05/21 01:09:55;;;;;;;26.70;13.90;;;12.70;99.90;;;;;;5059342;28;20051;-64
2022/05/21 01:12:22;;;;;;;33.85;14.75;;;12.70;99.90;;;;;;5077442;28;20361;-64
2022/05/21 01:14:51;;;;;;;33.30;15.07;;;12.70;99.90;;;;;;5077476;28;20055;-64
2022/05/21 01:17:20;;;;;;;25.88;15.23;;;12.70;99.90;;;;;;5077195;28;20370;-62
2022/05/21 01:20:09;;;;;;;26.58;14.48;;;12.70;99.90;;;;;;5076990;28;20064;-63
2022/05/21 01:22:43;;;;;;;25.73;13.52;;;12.70;99.90;;;;;;5076315;28;20048;-63
2022/05/21 01:25:10;;;;;;;32.60;15.73;;;12.60;99.90;;;;;;5077229;28;20131;-63
2022/05/21 01:27:36;;;;;;;29.10;15.45;;;12.70;99.90;;;;;;5077113;28;20053;-62
2022/05/21 01:30:05;;;;;;;37.05;17.60;;;12.60;99.90;;;;;;5077059;28;20565;-63
2022/05/21 01:32:30;;;;;;;44.42;15.93;;;12.60;99.90;;;;;;5077149;28;20491;-62
2022/05/21 01:34:59;;;;;;;39.72;17.42;;;12.70;99.90;;;;;;5059079;28;20080;-63
2022/05/21 01:37:24;;;;;;;34.33;15.52;;;12.70;99.90;;;;;;5058507;28;20055;-63
2022/05/21 01:39:50;;;;;;;38.05;15.25;;;12.60;99.90;;;;;;5076919;28;20049;-62
2022/05/21 01:42:16;;;;;;;32.88;16.25;;;12.60;99.90;;;;;;5077106;28;20040;-62
2022/05/21 01:44:42;;;;;;;37.85;15.10;;;12.60;99.90;;;;;;5072011;28;20040;-63
2022/05/21 01:47:10;;;;;;;37.80;12.88;;;12.60;99.90;;;;;;5056817;28;20053;-63
2022/05/21 01:49:36;;;;;;;25.98;12.02;;;12.70;99.90;;;;;;5056413;28;20056;-62
2022/05/21 01:52:03;;;;;;;42.97;13.32;;;12.80;99.90;;;;;;5056854;28;20033;-62
2022/05/21 01:54:29;;;;;;;38.70;13.95;;;12.70;99.90;;;;;;5056648;28;20041;-62
2022/05/21 01:56:55;;;;;;;31.70;10.85;;;12.80;99.90;;;;;;5056832;28;20072;-62
2022/05/21 01:59:21;;;;;;;34.45;11.07;;;12.80;99.90;;;;;;5074663;28;20079;-63
2022/05/21 02:01:48;;;;;;;36.70;11.68;;;12.80;99.90;;;;;;5058869;28;20045;-63
2022/05/21 02:04:15;;;;;;;36.30;11.10;;;13.00;99.90;;;;;;5072071;28;20056;-63
2022/05/21 02:06:42;;;;;;;37.47;12.60;;;12.90;99.90;;;;;;5058562;28;20474;-63
2022/05/21 02:09:08;;;;;;;30.90;9.00;;;12.90;99.90;;;;;;5076686;28;20064;-63
2022/05/21 02:11:34;;;;;;;30.65;9.20;;;12.90;99.90;;;;;;5076143;28;20135;-63
2022/05/21 02:14:00;;;;;;;27.13;8.48;;;12.90;99.90;;;;;;5076260;28;20072;-63
2022/05/21 02:16:25;;;;;;;34.78;9.45;;;13.10;99.90;;;;;;5075692;28;20044;-64
2022/05/21 02:18:51;;;;;;;33.05;8.48;;;13.00;99.90;;;;;;5058353;28;20045;-62
2022/05/21 02:21:18;;;;;;;32.22;8.90;;;13.00;99.90;;;;;;5076418;28;20053;-63
2022/05/21 02:23:44;;;;;;;29.10;7.30;;;13.00;99.90;;;;;;5075914;28;20052;-63
2022/05/21 02:26:09;;;;;;;28.35;8.70;;;13.00;99.90;;;;;;5076100;28;20055;-63
2022/05/21 02:28:35;;;;;;;28.05;8.05;;;13.10;99.90;;;;;;5075350;28;20382;-64
2022/05/21 02:31:01;;;;;;;29.42;8.45;;;13.00;99.90;;;;;;5057374;28;20040;-63
2022/05/21 02:33:26;;;;;;;34.55;8.32;;;13.10;99.90;;;;;;5075834;28;20051;-63
2022/05/21 02:35:52;;;;;;;31.67;7.55;;;13.00;99.90;;;;;;5075848;28;20336;-64
2022/05/21 02:41:08;;;;;;;28.53;7.30;;;13.10;99.90;;;;;;5075938;28;20410;-63
2022/05/21 02:43:34;;;;;;;27.75;7.93;;;13.10;99.90;;;;;;5058264;28;20747;-63
2022/05/21 02:45:59;;;;;;;34.55;7.15;;;13.10;99.90;;;;;;5074403;28;20044;-63
2022/05/21 02:48:28;;;;;;;26.52;7.93;;;13.00;99.90;;;;;;5057696;28;20055;-64
2022/05/21 02:50:54;;;;;;;28.30;7.10;;;12.90;99.90;;;;;;5058016;28;20421;-63
2022/05/21 02:53:20;;;;;;;23.17;6.43;;;12.90;99.90;;;;;;5058145;28;20438;-63
2022/05/21 02:55:46;;;;;;;23.38;7.05;;;12.90;99.90;;;;;;5075096;28;20055;-64
2022/05/21 02:58:12;;;;;;;29.05;7.03;;;13.00;99.90;;;;;;5075596;28;20044;-64
2022/05/21 03:00:38;;;;;;;18.33;6.68;;;13.00;99.90;;;;;;5074433;28;20451;-63
2022/05/21 03:03:04;;;;;;;19.48;6.78;;;13.00;99.90;;;;;;5074688;28;20106;-64
2022/05/21 03:05:31;;;;;;;29.42;7.10;;;13.00;99.90;;;;;;5074972;28;20356;-63
2022/05/21 03:07:57;;;;;;;25.48;7.82;;;13.00;99.90;;;;;;5075195;28;20473;-63
2022/05/21 03:10:25;;;;;;;25.77;7.82;;;12.90;99.90;;;;;;5075144;28;20040;-63
2022/05/21 03:12:56;;;;;;;27.15;7.05;;;12.90;99.90;;;;;;5074856;28;20478;-63
2022/05/21 03:15:27;;;;;;;26.50;6.50;;;12.90;99.90;;;;;;5074276;28;20044;-63
2022/05/21 03:17:53;;;;;;;27.38;7.35;;;12.90;99.90;;;;;;5056959;28;20116;-64
2022/05/21 03:20:21;;;;;;;21.67;7.25;;;12.80;99.90;;;;;;5075174;28;20534;-63
2022/05/21 03:22:47;;;;;;;23.45;7.60;;;12.80;99.90;;;;;;5075014;28;20137;-63
2022/05/21 03:25:13;;;;;;;25.08;7.13;;;12.90;99.90;;;;;;5074675;28;20131;-63
2022/05/21 03:27:39;;;;;;;27.17;7.00;;;12.90;99.90;;;;;;5040489;28;20044;-65
2022/05/21 03:30:08;;;;;;;25.48;7.97;;;12.70;99.90;;;;;;5073245;28;20066;-63
2022/05/21 03:32:33;;;;;;;29.05;8.25;;;12.70;99.90;;;;;;5074433;28;20119;-63
2022/05/21 03:34:59;;;;;;;25.20;7.10;;;12.80;99.90;;;;;;5073672;28;20141;-63
2022/05/21 03:37:24;;;;;;;19.95;5.60;;;12.70;99.90;;;;;;5075128;28;20063;-63
2022/05/21 03:39:50;;;;;;;29.33;6.90;;;12.70;99.90;;;;;;5056587;28;20044;-64
2022/05/21 03:42:17;;;;;;;30.70;7.30;;;12.70;99.90;;;;;;5074756;28;20040;-64
2022/05/21 03:44:43;;;;;;;20.98;6.47;;;12.70;99.90;;;;;;5074034;28;20090;-63
2022/05/21 03:47:10;;;;;;;23.90;6.55;;;12.60;99.90;;;;;;5074155;28;20358;-64
2022/05/21 03:49:36;;;;;;;20.27;5.75;;;12.60;99.90;;;;;;5074542;28;20516;-63
2022/05/21 03:52:02;;;;;;;22.17;6.40;;;12.60;99.90;;;;;;5074695;28;20044;-64
2022/05/21 03:54:27;;;;;;;24.45;7.05;;;12.60;99.90;;;;;;5075014;28;20053;-63
2022/05/21 03:56:55;;;;;;;20.17;5.82;;;12.70;99.90;;;;;;5056488;28;20075;-64
2022/05/21 03:59:20;;;;;;;21.75;6.10;;;12.60;99.90;;;;;;5072766;28;20086;-63
2022/05/21 04:01:46;;;;;;;23.48;6.15;;;12.60;99.90;;;;;;5061096;28;20077;-64
2022/05/21 04:04:12;;;;;;;26.10;7.43;;;12.60;99.90;;;;;;5053875;28;20044;-64
2022/05/21 04:06:37;;;;;;;23.80;6.07;;;12.60;99.90;;;;;;5054591;28;20111;-63
2022/05/21 04:09:03;;;;;;;22.05;5.85;;;12.50;99.90;;;;;;5053195;28;20056;-64
2022/05/21 04:11:29;;;;;;;33.40;6.18;;;12.60;99.90;;;;;;5053132;28;20052;-63
2022/05/21 04:13:55;;;;;;;25.40;5.63;;;12.50;99.90;;;;;;5056046;28;20049;-63
2022/05/21 04:16:20;;;;;;;17.88;4.90;;;12.60;99.90;;;;;;5074572;28;20049;-64
2022/05/21 04:18:46;;;;;;;21.88;5.18;;;12.40;99.90;;;;;;5074480;28;20366;-64
2022/05/21 04:21:11;;;;;;;16.00;4.38;;;12.50;99.90;;;;;;5074353;28;20500;-64
2022/05/21 04:23:37;;;;;;;18.23;5.72;;;12.40;99.90;;;;;;5074474;28;20043;-63
2022/05/21 04:26:03;;;;;;;22.55;5.53;;;12.50;99.90;;;;;;5056202;28;20059;-65
2022/05/21 04:28:29;;;;;;;22.63;5.47;;;12.50;99.90;;;;;;5074062;28;20139;-64
2022/05/21 04:30:55;;;;;;;20.50;5.10;;;12.40;99.90;;;;;;5074333;28;20062;-63
2022/05/21 04:33:20;;;;;;;18.63;4.90;;;12.40;99.90;;;;;;5057053;28;20501;-64
2022/05/21 04:38:35;;;;;;;21.07;4.87;;;12.40;99.90;;;;;;5074254;28;20052;-64
2022/05/21 04:41:01;;;;;;;20.23;4.97;;;12.50;99.90;;;;;;5073411;28;20589;-63
2022/05/21 04:43:28;;;;;;;22.63;5.72;;;12.50;99.90;;;;;;5074626;28;20132;-63
2022/05/21 04:45:56;;;;;;;22.65;5.13;;;12.50;99.90;;;;;;5074350;28;20040;-64
2022/05/21 04:48:22;;;;;;;23.25;5.10;;;12.60;99.90;;;;;;5073988;28;20417;-64
2022/05/21 04:50:48;;;;;;;15.35;4.82;;;12.50;99.90;;;;;;5074265;28;20132;-64
2022/05/21 04:53:14;;;;;;;22.15;5.13;;;12.60;99.90;;;;;;5077381;28;20442;-64
2022/05/21 04:55:40;;;;;;;21.02;6.57;;;12.60;99.90;;;;;;5076852;28;20076;-64
2022/05/21 04:58:06;;;;;;;21.23;5.20;;;12.50;99.90;;;;;;5077760;28;20052;-64
2022/05/21 05:00:32;;;;;;;23.67;5.82;;;12.60;99.90;;;;;;5076684;28;20442;-64
2022/05/21 05:02:58;;;;;;;21.20;6.35;;;12.50;99.90;;;;;;5077721;28;20044;-64
2022/05/21 05:05:23;;;;;;;23.33;6.20;;;12.60;99.90;;;;;;5077894;28;20358;-64
2022/05/21 05:07:49;;;;;;;20.80;5.10;;;12.60;99.90;;;;;;5059468;28;20186;-64
2022/05/21 05:10:15;;;;;;;16.63;4.55;;;12.70;99.90;;;;;;5077395;28;20120;-63
2022/05/21 05:12:40;;;;;;;27.23;6.63;;;12.80;99.90;;;;;;5077168;28;20077;-63
2022/05/21 05:15:06;;;;;;;24.23;6.07;;;12.80;99.90;;;;;;5076491;28;20045;-63
2022/05/21 05:17:32;;;;;;;17.50;5.43;;;12.80;99.90;;;;;;5077682;28;20048;-64
2022/05/21 05:19:59;;;;;;;21.00;5.93;;;12.70;99.90;;;;;;5077138;28;20136;-64
2022/05/21 05:22:25;;;;;;;21.65;5.82;;;12.70;99.90;;;;;;5076872;28;20084;-63
2022/05/21 05:24:50;;;;;;;23.20;5.20;;;12.80;99.90;;;;;;5077215;28;20141;-64
2022/05/21 05:27:16;;;;;;;22.48;5.50;;;12.80;99.90;;;;;;5077284;28;20129;-64
2022/05/21 05:29:41;;;;;;;28.20;5.75;;;12.70;99.90;;;;;;5076524;28;20052;-64
2022/05/21 05:32:08;;;;;;;23.10;4.95;;;12.80;99.90;;;;;;5059722;28;20057;-64
2022/05/21 05:34:34;;;;;;;18.27;5.57;;;12.80;99.90;;;;;;5077438;28;20131;-64
2022/05/21 05:37:01;;;;;;;20.30;5.38;;;12.80;99.90;;;;;;5076867;28;20358;-64
2022/05/21 05:39:27;;;;;;;20.13;4.82;;;12.70;99.90;;;;;;5076837;28;20048;-65
2022/05/21 05:41:53;;;;;;;20.98;4.97;;;12.80;99.90;;;;;;5076944;28;20051;-64
2022/05/21 05:44:20;;;;;;;16.95;5.75;;;12.80;99.90;;;;;;5075752;28;20048;-64
2022/05/21 05:46:46;;;;;;;16.55;5.00;;;12.80;99.90;;;;;;5076251;28;20044;-63
2022/05/21 05:49:11;;;;;;;19.80;5.22;;;12.80;99.90;;;;;;5059178;28;20124;-64
2022/05/21 05:51:37;;;;;;;22.75;6.03;;;12.90;99.90;;;;;;5058892;28;20076;-63
2022/05/21 05:54:03;;;;;;;20.67;5.13;;;12.90;99.90;;;;;;5076823;28;20056;-64
2022/05/21 05:56:28;;;;;;;25.83;6.13;;;12.90;99.90;;;;;;5076601;28;20097;-64
2022/05/21 06:01:39;;;;;;;26.83;6.60;;;13.00;99.90;;;;;;5076347;28;20044;-64
2022/05/21 06:04:04;;;;;;;21.40;5.25;;;12.90;99.90;;;;;;5075070;28;20458;-65
2022/05/21 06:06:31;;;;;;;20.52;5.03;;;13.00;99.90;;;;;;5076441;28;20052;-64
2022/05/21 06:08:57;;;;;;;22.40;5.10;;;13.00;99.90;;;;;;5059320;28;20055;-64
2022/05/21 06:11:23;;;;;;;23.80;6.38;;;13.00;99.90;;;;;;5075402;28;20367;-66
2022/05/21 06:13:48;;;;;;;22.10;5.72;;;13.10;99.90;;;;;;5075839;28;20041;-66
2022/05/21 06:16:15;;;;;;;19.45;6.38;;;13.10;99.90;;;;;;5076198;28;20052;-66
2022/05/21 06:18:41;;;;;;;19.05;4.28;;;13.00;99.90;;;;;;5075755;28;20051;-67
2022/05/21 06:21:07;;;;;;;18.73;5.20;;;13.00;99.90;;;;;;5076085;28;20147;-65
2022/05/21 06:23:33;;;;;;;18.35;4.28;;;13.10;99.90;;;;;;5076525;28;20365;-66
2022/05/21 06:26:00;;;;;;;27.35;5.10;;;13.10;99.90;;;;;;5058489;28;20124;-65
2022/05/21 06:28:29;;;;;;;30.20;6.53;;;13.10;99.90;;;;;;5075584;28;20454;-65
2022/05/21 06:30:56;;;;;;;16.85;4.63;;;13.20;99.90;;;;;;5076078;28;20040;-65
2022/05/21 06:33:27;;;;;;;25.45;5.80;;;13.20;99.90;;;;;;5056849;28;20059;-63
2022/05/21 06:36:15;;;;;;;19.20;5.18;;;13.20;99.90;;;;;;5074319;28;20081;-63
2022/05/21 06:38:41;;;;;;;20.30;5.47;;;13.20;99.90;;;;;;5057158;28;20458;-63
2022/05/21 06:41:08;;;;;;;24.15;5.78;;;13.20;99.90;;;;;;5074949;28;20037;-63
2022/05/21 06:43:35;;;;;;;24.08;5.28;;;13.20;99.90;;;;;;5076020;28;20044;-65
2022/05/21 06:46:01;;;;;;;20.15;5.60;;;13.20;99.90;;;;;;5075667;28;20036;-65
2022/05/21 06:48:27;;;;;;;17.60;4.95;;;13.20;99.90;;;;;;5075593;28;20048;-62
2022/05/21 06:50:53;;;;;;;21.75;5.78;;;13.30;99.90;;;;;;5075460;28;20343;-63
2022/05/21 06:53:18;;;;;;;16.55;4.90;;;13.30;99.90;;;;;;5074537;28;20456;-65
2022/05/21 06:55:44;;;;;;;22.23;5.93;;;13.40;99.90;;;;;;5075574;28;20101;-63
2022/05/21 06:58:10;;;;;;;18.70;5.00;;;13.40;99.90;;;;;;5075490;28;20045;-63
2022/05/21 07:00:36;;;;;;;24.52;5.18;;;13.50;99.90;;;;;;5075391;28;20462;-64
2022/05/21 07:03:02;;;;;;;18.13;4.88;;;13.50;99.90;;;;;;5070384;28;20055;-63
2022/05/21 07:08:19;;;;;;;20.63;5.20;;;13.50;99.90;;;;;;5049634;28;20053;-63
2022/05/21 07:10:45;;;;;;;17.48;4.95;;;13.50;99.90;;;;;;5065257;28;20044;-64
2022/05/21 07:13:10;;;;;;;22.95;5.22;;;13.50;99.90;;;;;;5064094;28;20190;-65
2022/05/21 07:15:37;;;;;;;19.50;4.90;;;13.40;99.90;;;;;;5071089;28;20051;-65
2022/05/21 07:18:03;;;;;;;24.65;5.07;;;13.40;99.90;;;;;;5075132;28;20048;-64
2022/05/21 07:20:29;;;;;;;20.10;4.75;;;13.40;99.90;;;;;;5057299;28;20064;-67
2022/05/21 07:22:56;;;;;;;19.10;4.97;;;13.50;99.90;;;;;;5074938;28;20060;-66
2022/05/21 07:25:25;;;;;;;30.83;6.05;;;13.50;99.90;;;;;;5074855;28;20059;-65
2022/05/21 07:27:52;;;;;;;27.38;5.38;;;13.70;99.90;;;;;;5056241;28;20080;-65
2022/05/21 07:30:18;;;;;;;17.77;5.13;;;13.70;99.90;;;;;;5074705;28;20169;-64
2022/05/21 07:32:44;;;;;;;21.55;5.15;;;13.70;99.90;;;;;;5071791;28;20082;-65
2022/05/21 07:35:13;;;;;;;19.05;5.90;;;13.60;99.90;;;;;;5074726;28;20097;-65
2022/05/21 07:37:39;;;;;;;17.30;6.10;;;13.70;99.90;;;;;;5074317;28;20136;-65
2022/05/21 07:40:07;;;;;;;16.08;5.60;;;13.70;99.90;;;;;;5074608;28;20370;-65
2022/05/21 07:42:32;;;;;;;20.90;4.55;;;13.80;99.90;;;;;;5073667;28;20037;-65
2022/05/21 07:44:58;;;;;;;14.75;4.63;;;13.80;99.90;;;;;;5074840;28;20106;-65
2022/05/21 07:47:24;;;;;;;17.20;5.13;;;13.80;99.90;;;;;;5057326;28;20496;-64
2022/05/21 07:49:56;;;;;;;19.25;4.75;;;13.70;99.90;;;;;;5074420;28;20430;-63
2022/05/21 07:52:26;;;;;;;23.23;5.20;;;13.80;99.90;;;;;;5071180;28;20081;-66
2022/05/21 07:54:52;;;;;;;19.50;5.05;;;14.00;99.90;;;;;;5071033;28;20060;-65
2022/05/21 07:57:18;;;;;;;19.95;4.30;;;14.00;99.90;;;;;;5070446;28;20366;-65
2022/05/21 07:59:44;;;;;;;17.95;4.88;;;14.00;99.90;;;;;;5071144;28;20036;-65
2022/05/21 08:02:12;;;;;;;16.45;5.32;;;14.00;99.90;;;;;;5071109;28;20401;-64
2022/05/21 08:04:38;;;;;;;18.50;4.65;;;14.00;99.90;;;;;;5057159;28;20049;-63
2022/05/21 08:07:04;;;;;;;20.73;4.97;;;14.10;99.90;;;;;;5074541;28;20040;-64
2022/05/21 08:09:29;;;;;;;21.00;6.15;;;14.30;99.90;;;;;;5073443;28;20359;-65
2022/05/21 08:11:55;;;;;;;19.63;5.47;;;14.40;99.90;;;;;;5071346;28;20123;-64
2022/05/21 08:14:21;;;;;;;23.85;5.90;;;14.20;99.90;;;;;;5073679;28;20127;-64
2022/05/21 08:16:47;;;;;;;18.85;5.57;;;14.30;99.90;;;;;;5056931;28;20059;-64
2022/05/21 08:19:12;;;;;;;21.05;4.70;;;14.20;99.90;;;;;;5074519;28;20469;-64
2022/05/21 08:21:39;;;;;;;14.23;4.28;;;14.30;99.90;;;;;;5074241;28;20132;-65
2022/05/21 08:26:57;;;;;;;21.13;5.80;;;14.50;99.90;;;;;;5075225;28;20052;-64
2022/05/21 08:29:43;;;;;;;14.88;5.28;;;14.30;99.90;;;;;;5078207;28;20045;-65
2022/05/21 08:32:13;;;;;;;19.38;4.43;;;14.40;99.90;;;;;;5076701;28;20052;-65
2022/05/21 08:34:38;;;;;;;20.88;4.22;;;14.30;99.90;;;;;;5077924;28;20041;-65
2022/05/21 08:37:04;;;;;;;16.75;5.10;;;14.50;99.90;;;;;;5078075;28;20460;-64
2022/05/21 08:39:29;;;;;;;17.13;4.75;;;14.40;99.90;;;;;;5077924;28;20087;-65
2022/05/21 08:41:58;;;;;;;17.50;5.13;;;14.50;99.90;;;;;;5078014;28;20045;-65
2022/05/21 08:44:43;;;;;;;20.55;4.40;;;14.50;99.90;;;;;;5060621;28;20455;-65
2022/05/21 08:47:27;;;;;;;18.80;4.80;;;14.40;99.90;;;;;;5077045;28;20048;-65
2022/05/21 08:50:03;;;;;;;17.13;4.97;;;14.40;99.90;;;;;;5076874;28;20041;-64
2022/05/21 08:52:29;;;;;;;16.85;5.72;;;14.50;99.90;;;;;;5077619;28;20103;-64
2022/05/21 08:54:58;;;;;;;16.45;5.78;;;14.50;99.90;;;;;;5077941;28;20238;-65
2022/05/21 08:57:26;;;;;;;16.10;4.32;;;14.70;99.90;;;;;;5059595;28;20048;-65
2022/05/21 09:00:15;;;;;;;16.58;4.70;;;14.60;99.90;;;;;;5077492;28;20047;-65
2022/05/21 09:02:41;;;;;;;18.75;5.03;;;14.50;99.90;;;;;;5076576;28;20037;-66
2022/05/21 09:05:11;;;;;;;15.38;4.43;;;14.60;99.90;;;;;;5077797;28;20469;-65
2022/05/21 09:08:03;;;;;;;26.58;5.97;;;14.70;99.90;;;;;;5059761;28;20204;-65
2022/05/21 09:10:53;;;;;;;18.02;5.03;;;14.80;99.90;;;;;;5063927;28;20061;-65
2022/05/21 09:13:24;;;;;;;16.50;4.57;;;14.60;99.90;;;;;;5077556;28;20040;-66
2022/05/21 09:18:35;;;;;;;17.35;4.53;;;14.60;99.90;;;;;;5076382;28;20057;-66
2022/05/21 09:21:08;;;;;;;14.98;5.03;;;14.50;99.90;;;;;;5077307;28;20379;-66
2022/05/21 09:23:55;;;;;;;22.63;4.72;;;14.40;99.90;;;;;;5077480;28;20040;-67
2022/05/21 09:26:24;;;;;;;15.32;4.88;;;14.40;99.90;;;;;;5059669;28;20044;-69
2022/05/21 09:28:50;;;;;;;26.50;6.78;;;14.30;99.90;;;;;;5077057;28;20044;-65
2022/05/21 09:31:29;;;;;;;17.00;4.40;;;14.40;99.90;;;;;;5076121;28;20052;-64
2022/05/21 09:34:10;;;;;;;13.70;4.20;;;14.50;99.90;;;;;;5077055;28;20556;-65
2022/05/21 09:36:35;;;;;;;20.65;4.70;;;14.60;99.90;;;;;;5077229;28;20094;-65
2022/05/21 09:39:01;;;;;;;21.40;4.55;;;14.60;99.90;;;;;;5076934;28;20092;-66
2022/05/21 09:41:32;;;;;;;18.63;4.55;;;14.50;99.90;;;;;;5076998;28;20339;-65
2022/05/21 09:47:06;;;;;;;20.27;5.47;;;14.60;99.90;;;;;;5071459;28;20079;-65
2022/05/21 09:49:32;;;;;;;18.48;4.35;;;14.60;99.90;;;;;;5076516;28;20094;-65
2022/05/21 09:52:07;;;;;;;17.35;4.82;;;14.70;99.90;;;;;;5076470;28;20166;-65
2022/05/21 09:54:41;;;;;;;14.80;4.50;;;14.60;99.90;;;;;;5076624;28;20052;-66
2022/05/21 09:57:37;;;;;;;14.80;4.63;;;14.60;99.90;;;;;;5058927;28;20048;-65
2022/05/21 10:00:22;;;;;;;18.60;4.78;;;14.80;99.90;;;;;;5075895;28;20040;-66
2022/05/21 10:02:49;;;;;;;;;;;14.90;99.90;;;;;;5076063;28;20040;-65
2022/05/21 10:05:35;;;;;;;17.33;4.95;;;15.00;99.90;;;;;;5076541;28;20019;-65
2022/05/21 10:11:33;;;;;;;16.13;4.85;;;15.10;99.90;;;;;;5076376;28;20482;-64
2022/05/21 10:14:30;;;;;;;15.07;4.57;;;15.10;99.90;;;;;;5075484;28;20048;-66
2022/05/21 10:16:59;;;;;;;24.40;5.28;;;15.40;99.90;;;;;;5076127;28;20044;-65
2022/05/21 10:19:34;;;;;;;17.70;5.65;;;15.50;99.90;;;;;;5076285;28;20469;-65
2022/05/21 10:22:10;;;;;;;;;;;15.60;99.90;;;;;;5076890;28;20095;-65
2022/05/21 10:24:39;;;;;;;18.17;5.40;;;15.70;99.90;;;;;;5076341;28;20022;-65
2022/05/21 10:27:25;;;;;;;12.00;5.05;;;15.60;99.90;;;;;;5058531;28;20056;-65
2022/05/21 10:29:59;;;;;;;18.45;6.82;;;15.40;99.90;;;;;;5074755;28;20040;-65
2022/05/21 10:33:07;;;;;;;16.13;5.28;;;15.60;99.90;;;;;;5074336;28;20378;-65
2022/05/21 10:35:56;;;;;;;13.45;4.05;;;15.50;99.90;;;;;;5075882;28;20407;-64
2022/05/21 10:38:24;;;;;;;15.38;5.07;;;15.60;99.90;;;;;;5075783;28;20076;-65
2022/05/21 10:41:03;;;;;;;17.30;5.63;;;15.40;99.90;;;;;;5075612;28;20055;-65
2022/05/21 10:44:05;;;;;;;18.05;5.07;;;15.40;99.90;;;;;;5074148;28;20523;-65
2022/05/21 10:46:51;;;;;;;15.30;5.32;;;15.50;99.90;;;;;;5075355;28;20463;-64
2022/05/21 10:49:54;;;;;;;26.50;6.65;;;15.90;99.90;;;;;;5075205;28;20048;-65
2022/05/21 10:52:51;;;;;;;18.20;4.78;;;15.80;99.90;;;;;;5073651;28;20107;-65
2022/05/21 10:55:26;;;;;;;15.30;4.57;;;15.20;99.90;;;;;;5053908;28;20411;-64
2022/05/21 10:58:30;;;;;;;12.27;4.55;;;15.50;99.90;;;;;;5069361;28;20359;-65
2022/05/21 11:01:09;;;;;;;14.95;4.05;;;15.50;99.90;;;;;;5074923;28;20450;-65
2022/05/21 11:03:54;;;;;;;15.13;5.38;;;15.80;99.90;;;;;;5075215;28;20044;-65
2022/05/21 11:06:38;;;;;;;12.27;4.20;;;15.60;99.90;;;;;;5073827;28;20048;-66
2022/05/21 11:09:17;;;;;;;19.50;4.90;;;15.50;99.90;;;;;;5075221;28;20123;-65
2022/05/21 11:12:21;;;;;;;13.15;3.90;;;15.70;99.90;;;;;;5074464;28;20074;-65
2022/05/21 11:14:53;;;;;;;16.58;5.43;;;16.00;99.90;;;;;;5007213;28;20190;-66
2022/05/21 11:17:30;;;;;;;16.55;3.88;;;16.40;99.90;;;;;;5057637;28;20049;-64
2022/05/21 11:20:03;;;;;;;12.95;3.45;;;16.10;99.90;;;;;;5074882;28;20051;-65
2022/05/21 11:22:58;;;;;;;15.63;4.15;;;16.50;99.90;;;;;;5073874;28;20477;-65
2022/05/21 11:25:31;;;;;;;15.93;4.00;;;16.60;99.90;;;;;;5074699;28;20049;-65
2022/05/21 11:28:13;;;;;;;16.83;4.40;;;16.20;99.90;;;;;;5074957;28;20135;-64
2022/05/21 11:30:39;;;;;;;20.15;4.80;;;16.20;99.90;;;;;;5074335;28;20458;-65
2022/05/21 11:38:51;;;;;;;15.20;4.55;;;16.20;99.90;;;;;;5074910;28;20056;-66
2022/05/21 11:41:25;;;;;;;16.27;4.30;;;15.90;99.90;;;;;;5073803;28;20400;-66
2022/05/21 11:47:15;;;;;;;15.95;4.25;;;16.00;99.90;;;;;;4996706;28;20054;-65
2022/05/21 11:49:56;;;;;;;14.38;4.60;;;16.00;99.90;;;;;;5012248;28;20045;-65
2022/05/21 11:52:27;;;;;;;11.43;4.20;;;16.00;99.90;;;;;;5030312;28;20084;-65
2022/05/21 11:55:11;;;;;;;13.88;4.13;;;16.40;99.90;;;;;;5074920;28;20415;-65
2022/05/21 11:57:55;;;;;;;17.17;5.07;;;16.40;99.90;;;;;;5073794;28;20048;-65
2022/05/21 12:00:21;;;;;;;12.88;4.57;;;16.50;99.90;;;;;;5074269;28;20443;-65
2022/05/21 12:02:58;;;;;;;14.35;4.20;;;16.50;99.90;;;;;;5077596;28;20051;-66
2022/05/21 12:05:37;;;;;;;12.45;4.30;;;16.60;99.90;;;;;;5078964;28;20177;-65
2022/05/21 12:08:21;;;;;;;13.90;4.68;;;16.20;99.90;;;;;;5078352;28;20632;-66
2022/05/21 12:11:24;;;;;;;13.35;3.58;;;16.50;99.90;;;;;;5077917;28;20343;-66
2022/05/21 12:14:18;;;;;;;18.83;4.88;;;16.30;99.90;;;;;;5058545;28;20052;-65
2022/05/21 12:16:46;;;;;;;11.27;4.00;;;16.10;99.90;;;;;;5046195;28;20120;-65
2022/05/21 12:19:44;;;;;;;13.25;4.30;;;15.90;99.90;;;;;;5058624;28;20041;-65
2022/05/21 12:22:10;;;;;;;13.63;4.28;;;16.20;99.90;;;;;;5058348;28;20145;-65
2022/05/21 12:24:41;;;;;;;15.90;4.30;;;16.50;99.90;;;;;;5058429;28;20056;-65
2022/05/21 12:27:26;;;;;;;16.98;4.40;;;17.00;99.90;;;;;;5065146;28;20462;-65
2022/05/21 12:29:58;;;;;;;12.45;3.80;;;17.30;99.90;;;;;;5076769;28;20067;-65
2022/05/21 12:32:24;;;;;;;17.17;5.07;;;17.10;99.90;;;;;;5078300;28;20145;-65
2022/05/21 12:35:21;;;;;;;16.98;4.18;;;17.00;99.90;;;;;;5056773;28;20064;-64
2022/05/21 12:37:58;;;;;;;21.75;4.30;;;17.30;99.90;;;;;;5078124;28;20044;-65
2022/05/21 12:40:52;;;;;;;17.75;4.72;;;17.00;99.90;;;;;;5077518;28;20049;-66
2022/05/21 12:43:18;;;;;;;16.50;4.65;;;17.30;99.90;;;;;;5077843;28;20451;-65
2022/05/21 12:45:49;;;;;;;15.05;5.03;;;17.70;99.90;;;;;;5077746;28;20074;-65
2022/05/21 12:48:23;;;;;;;15.18;3.72;;;18.10;99.90;;;;;;5077840;28;20044;-66
2022/05/21 12:50:57;;;;;;;15.82;4.60;;;17.30;99.90;;;;;;5058260;28;20470;-65
2022/05/21 12:53:34;;;;;;;13.30;4.13;;;17.30;99.90;;;;;;5077054;28;20332;-66
2022/05/21 12:56:29;;;;;;;16.77;5.00;;;17.10;99.90;;;;;;5077709;28;20055;-66
2022/05/21 12:59:09;;;;;;;13.02;4.88;;;17.40;99.90;;;;;;5077360;28;20429;-65
2022/05/21 13:01:37;;;;;;;13.63;4.38;;;17.60;99.90;;;;;;5077730;28;20044;-66
2022/05/21 13:04:21;;;;;;;14.50;4.18;;;17.50;99.90;;;;;;5077122;28;20051;-66
2022/05/21 13:06:56;;;;;;;12.50;3.75;;;17.80;99.90;;;;;;5077673;28;20336;-65
2022/05/21 13:09:22;;;;;;;18.73;4.97;;;18.10;99.90;;;;;;5077790;28;20079;-65
2022/05/21 13:11:48;;;;;;;20.27;5.60;;;18.20;99.90;;;;;;5077036;28;20067;-65
2022/05/21 13:14:22;;;;;;;17.38;4.78;;;18.30;99.90;;;;;;5077266;28;20049;-66
2022/05/21 13:16:50;;;;;;;;;;;17.70;99.90;;;;;;5074988;28;20048;-65
2022/05/21 13:19:50;;;;;;;13.82;4.35;;;17.40;99.90;;;;;;5076551;28;19968;-66
2022/05/21 13:22:32;;;;;;;18.95;5.15;;;17.00;99.90;;;;;;5076020;28;20098;-65
2022/05/21 13:25:05;;;;;;;16.08;5.30;;;17.50;99.90;;;;;;5077393;28;20051;-66
2022/05/21 13:27:45;;;;;;;18.40;5.57;;;18.00;99.90;;;;;;5077283;28;20036;-65